Latest Weather Observations for Lismore Airport

IDN60801

Issued at 7:05 am EST Friday 18 April 2014 (issued every 30 minutes, with the page automatically refreshed every 10 minutes)

About weather observations | Map of weather stations | Latest weather observations for NSW | Other Formats
Station Details ID: 058214 Name: LISMORE AIRPORT AWS Lat: -28.83 Lon: 153.26 Height: 9.21 m
Data from the previous 72 hours. | See also: Recent months for locations in New South Wales
Date/Time
EST
Temp
°C
App
Temp
°C
Dew
Point
Rel
Hum
%
Delta-T
°C
Wind Press
QNH
hPa
Press
MSL
hPa
Rain
since 9 am
mm
Dir
 
Spd
km/h
Gust
km/h
Spd
kts
Gust
kts
18/07:00am 14.9 14.8 14.9 100 0.0 N 9 11 5 6 1017.4 - 0.0
18/06:46am 13.6 12.7 13.6 100 0.0 N 11 13 6 7 1017.3 - 0.0
18/06:30am 13.0 11.9 13.0 100 0.0 N 11 13 6 7 1017.1 - 0.0
18/06:18am 13.2 12.1 13.2 100 0.0 N 11 13 6 7 1017.0 - 0.0
18/06:00am 12.9 13.1 12.9 100 0.0 N 4 7 2 4 1016.9 1016.9 0.0
18/05:30am 13.6 12.7 13.6 100 0.0 N 11 13 6 7 1016.7 - 0.0
18/05:00am 14.3 13.2 14.3 100 0.0 NNW 13 17 7 9 1016.7 - 0.0
18/04:30am 13.6 14.7 13.6 100 0.0 CALM 0 0 0 0 1016.7 - 0.0
18/04:00am 12.9 12.5 12.9 100 0.0 NNW 7 11 4 6 1016.7 - 0.0
18/03:30am 14.5 13.9 14.5 100 0.0 N 11 15 6 8 1016.7 - 0.0
18/03:01am 14.2 13.1 14.2 100 0.0 N 13 17 7 9 1016.8 - 0.0
18/03:00am 14.1 13.3 14.1 100 0.0 N 11 17 6 9 1016.8 1016.8 0.0
18/02:50am 12.5 12.1 12.3 99 0.1 NNW 6 11 3 6 1016.9 - 0.0
18/02:42am 12.3 13.0 12.1 99 0.1 CALM 0 0 0 0 1016.9 - 0.0
18/02:40am 12.5 13.3 12.5 100 0.0 CALM 0 0 0 0 1016.8 - 0.0
18/02:39am 13.0 13.9 13.0 100 0.0 CALM 0 0 0 0 1016.8 - 0.0
18/02:30am 12.9 13.7 12.7 99 0.1 CALM 0 6 0 3 1016.8 - 0.0
18/02:21am 12.8 12.5 12.6 99 0.1 NNW 6 7 3 4 1016.9 - 0.0
18/02:00am 14.4 14.1 14.4 100 0.0 N 9 11 5 6 1017.0 - 0.0
18/01:30am 15.2 15.6 15.2 100 0.0 N 7 9 4 5 1017.3 - 0.0
18/01:00am 13.9 14.8 13.9 100 0.0 NNW 2 7 1 4 1017.5 - 0.0
18/12:30am 14.7 15.1 14.7 100 0.0 N 6 9 3 5 1017.4 - 0.0
18/12:00am 14.9 16.4 14.7 99 0.1 N 0 2 0 1 1017.6 1017.6 0.0
 
Date/Time
EST
Temp
°C
App
Temp
°C
Dew
Point
Rel
Hum
%
Delta-T
°C
Wind Press
QNH
hPa
Press
MSL
hPa
Rain
since 9 am
mm
Dir
 
Spd
km/h
Gust
km/h
Spd
kts
Gust
kts
17/11:30pm 15.9 17.9 15.9 100 0.0 CALM 0 0 0 0 1017.9 - 0.0
17/11:00pm 15.4 15.8 15.2 99 0.1 NW 7 11 4 6 1018.1 - 0.0
17/10:30pm 15.8 16.0 15.8 100 0.0 N 9 11 5 6 1018.0 - 0.0
17/10:00pm 15.0 16.6 14.8 99 0.1 CALM 0 0 0 0 1018.2 - 0.0
17/09:30pm 15.0 16.6 14.8 99 0.1 CALM 0 0 0 0 1018.0 - 0.0
17/09:00pm 15.0 16.6 14.8 99 0.1 CALM 0 0 0 0 1017.8 1017.8 0.0
17/08:30pm 15.3 15.6 15.1 99 0.1 NNE 7 11 4 6 1017.5 - 0.0
17/08:00pm 15.9 16.6 15.7 99 0.1 NNE 6 7 3 4 1017.3 - 0.0
17/07:30pm 15.8 17.6 15.6 99 0.1 CALM 0 0 0 0 1017.0 - 0.0
17/07:00pm 16.0 17.9 15.8 99 0.1 CALM 0 0 0 0 1016.7 - 0.0
17/06:30pm 16.8 19.0 16.6 99 0.1 CALM 0 0 0 0 1016.3 - 0.0
17/06:00pm 18.5 20.0 17.5 94 0.6 S 6 7 3 4 1016.0 1016.0 0.0
17/05:30pm 19.5 20.5 17.8 90 1.0 S 9 11 5 6 1015.8 - 0.0
17/05:00pm 21.4 22.3 18.4 83 1.9 SE 11 17 6 9 1015.4 - 0.0
17/04:30pm 22.5 22.5 18.9 80 2.3 SE 17 24 9 13 1015.2 - 0.0
17/04:00pm 23.4 24.0 19.5 79 2.5 ESE 15 22 8 12 1014.9 - 0.0
17/03:30pm 23.5 23.5 19.0 76 2.9 SE 17 24 9 13 1014.8 - 0.0
17/03:00pm 24.3 26.0 18.5 70 3.7 SSE 7 20 4 11 1014.8 1014.8 0.0
17/02:30pm 25.6 26.5 18.3 64 4.6 W 11 17 6 9 1014.9 - 0.0
17/02:00pm 26.0 26.9 19.2 66 4.4 S 13 20 7 11 1015.2 - 0.0
17/01:30pm 24.8 26.2 18.7 69 3.9 SSE 9 17 5 9 1015.5 - 0.0
17/01:00pm 25.6 27.8 19.5 69 3.9 S 7 20 4 11 1015.9 - 0.0
17/12:30pm 24.8 25.4 17.8 65 4.4 SSW 11 20 6 11 1016.3 - 0.0
17/12:00pm 24.4 24.0 18.1 68 4.0 SSW 17 24 9 13 1016.8 1016.8 0.0
17/11:30am 24.3 24.7 18.9 72 3.4 SSW 15 24 8 13 1017.3 - 0.0
17/11:00am 23.9 24.8 19.2 75 3.0 SSW 13 22 7 12 1017.7 - 0.0
17/10:30am 23.5 24.1 19.4 78 2.6 SSW 15 20 8 11 1018.2 - 0.0
17/10:00am 22.6 23.2 18.6 78 2.5 SW 13 24 7 13 1018.5 - 0.0
17/09:30am 21.7 24.0 19.8 89 1.2 W 7 11 4 6 1018.6 - 0.0
17/09:00am 19.7 22.4 19.5 99 0.1 N 4 9 2 5 1018.7 1018.7 0.2
17/08:30am 18.1 19.2 17.9 99 0.1 N 9 13 5 7 1018.8 - 0.2
17/08:00am 15.6 15.4 15.6 100 0.0 N 11 15 6 8 1018.7 - 0.2
17/07:30am 14.8 14.6 14.8 100 0.0 N 9 13 5 7 1018.5 - 0.2
17/07:00am 14.1 15.4 14.1 100 0.0 CALM 0 6 0 3 1018.3 - 0.2
17/06:30am 13.2 11.7 13.2 100 0.0 NNW 13 19 7 10 1017.8 - 0.2
17/06:00am 13.0 11.9 13.0 100 0.0 NNW 11 15 6 8 1017.4 1017.4 0.0
17/05:30am 13.2 11.4 13.2 100 0.0 N 15 19 8 10 1017.0 - 0.0
17/05:00am 13.4 11.6 13.4 100 0.0 N 15 19 8 10 1016.8 - 0.0
17/04:30am 13.4 11.6 13.4 100 0.0 NNW 15 19 8 10 1016.7 - 0.0
17/04:00am 13.5 11.8 13.5 100 0.0 N 15 20 8 11 1016.5 - 0.0
17/03:30am 13.1 13.3 13.1 100 0.0 NNW 4 7 2 4 1016.5 - 0.0
17/03:00am 13.4 13.1 13.4 100 0.0 NNW 7 11 4 6 1016.3 1016.3 0.0
17/02:30am 13.7 12.8 13.7 100 0.0 N 11 15 6 8 1016.3 - 0.0
17/02:00am 12.0 10.5 12.0 100 0.0 NNW 11 15 6 8 1016.5 - 0.0
17/01:30am 12.0 12.6 12.0 100 0.0 CALM 0 0 0 0 1016.7 - 0.0
17/01:00am 13.3 13.2 13.3 100 0.0 N 6 7 3 4 1016.9 - 0.0
17/12:30am 13.5 13.8 13.5 100 0.0 N 4 9 2 5 1017.2 - 0.0
17/12:00am 14.2 14.2 14.2 100 0.0 N 7 9 4 5 1017.1 1017.1 0.0
 
Date/Time
EST
Temp
°C
App
Temp
°C
Dew
Point
Rel
Hum
%
Delta-T
°C
Wind Press
QNH
hPa
Press
MSL
hPa
Rain
since 9 am
mm
Dir
 
Spd
km/h
Gust
km/h
Spd
kts
Gust
kts
16/11:30pm 14.5 14.2 14.5 100 0.0 N 9 13 5 7 1017.2 - 0.0
16/11:00pm 13.9 14.0 13.9 100 0.0 N 6 9 3 5 1017.2 - 0.0
16/10:30pm 13.0 13.9 12.8 99 0.1 CALM 0 0 0 0 1017.2 - 0.0
16/10:00pm 14.6 16.1 14.6 100 0.0 CALM 0 0 0 0 1017.3 - 0.0
16/09:30pm 13.8 14.9 13.6 99 0.1 CALM 0 0 0 0 1017.2 - 0.0
16/09:00pm 15.3 16.3 15.3 100 0.0 NNW 4 7 2 4 1017.0 1017.0 0.0
16/08:30pm 15.7 15.8 15.5 99 0.1 N 9 11 5 6 1016.6 - 0.0
16/08:00pm 15.1 15.0 14.9 99 0.1 N 9 11 5 6 1016.5 - 0.0
16/07:30pm 16.2 17.1 16.0 99 0.1 SW 6 9 3 5 1016.3 - 0.0
16/07:00pm 17.1 19.5 16.9 99 0.1 CALM 0 0 0 0 1016.0 - 0.0
16/06:30pm 17.8 19.1 17.6 99 0.1 S 7 9 4 5 1015.6 - 0.0
16/06:00pm 18.9 20.7 18.7 99 0.1 S 7 9 4 5 1015.2 1015.2 0.0
16/05:30pm 20.7 21.7 19.5 93 0.8 SE 13 20 7 11 1014.9 - 0.0
16/05:00pm 21.7 23.3 19.1 85 1.6 SE 9 15 5 8 1014.7 - 0.0
16/04:30pm 22.6 23.2 19.4 82 2.0 SE 15 20 8 11 1014.4 - 0.0
16/04:00pm 23.2 23.9 20.5 85 1.8 ESE 17 24 9 13 1014.1 - 0.0
16/03:30pm 23.0 23.0 19.0 78 2.5 SSE 17 20 9 11 1014.1 - 0.0
16/03:00pm 25.1 25.4 19.7 72 3.5 S 17 26 9 14 1013.8 1013.8 0.0
16/02:30pm 24.7 24.2 19.1 71 3.6 S 20 30 11 16 1014.1 - 0.0
16/02:00pm 24.4 25.2 19.0 72 3.4 S 13 20 7 11 1014.3 - 0.0
16/01:30pm 25.0 25.2 19.4 71 3.6 S 17 22 9 12 1014.5 - 0.0
16/01:00pm 23.5 23.3 18.6 74 3.1 S 17 28 9 15 1014.8 - 0.0
16/12:30pm 24.6 24.8 19.4 73 3.3 SW 17 32 9 17 1015.2 - 0.0
16/12:00pm 23.5 22.8 18.6 74 3.1 SSW 20 28 11 15 1015.5 1015.5 0.0
16/11:30am 23.1 22.8 19.1 78 2.5 SSW 19 26 10 14 1016.1 - 0.0
16/11:00am 23.6 24.0 19.9 80 2.4 SSW 17 30 9 16 1016.5 - 0.0
16/10:30am 22.6 22.8 19.4 82 2.0 SW 17 24 9 13 1017.0 - 0.0
16/10:00am 21.7 21.7 18.9 84 1.8 SW 17 22 9 12 1017.2 - 0.0
16/09:30am 20.5 21.0 18.3 87 1.4 WSW 13 17 7 9 1017.2 - 0.0
16/09:00am 20.0 20.7 18.8 93 0.7 WSW 13 19 7 10 1017.2 1017.2 0.2
16/08:30am 18.3 19.8 18.1 99 0.1 SSE 7 11 4 6 1017.0 - 0.2
16/08:00am 16.8 18.3 16.6 99 0.1 NE 4 9 2 5 1016.9 - 0.2
16/07:30am 14.7 14.1 14.7 100 0.0 NNW 11 15 6 8 1016.6 - 0.2
16/07:00am 13.0 13.6 13.0 100 0.0 NNW 2 7 1 4 1016.3 - 0.2
16/06:30am 11.9 10.8 11.9 100 0.0 NNW 9 13 5 7 1016.1 - 0.2
16/06:00am 10.9 10.4 10.7 99 0.1 WNW 4 7 2 4 1015.9 1015.9 0.2
16/05:30am 12.2 11.5 12.0 99 0.1 N 7 11 4 6 1015.7 - 0.2
16/05:00am 13.1 12.3 12.9 99 0.1 N 9 13 5 7 1015.7 - 0.2
16/04:30am 13.2 12.8 13.0 99 0.1 NNE 7 9 4 5 1015.5 - 0.2
16/04:00am 13.7 13.5 13.5 99 0.1 NNE 7 9 4 5 1015.5 - 0.2
16/03:30am 14.1 14.1 14.1 100 0.0 NNE 7 11 4 6 1015.6 - 0.2
16/03:00am 13.5 12.1 13.5 100 0.0 N 13 17 7 9 1015.6 1015.6 0.2
16/02:30am 13.5 12.5 13.5 100 0.0 N 11 15 6 8 1015.4 - 0.2
16/02:00am 13.5 13.3 13.5 100 0.0 N 7 11 4 6 1015.4 - 0.2
16/01:30am 13.6 13.4 13.6 100 0.0 NNE 7 9 4 5 1015.5 - 0.2
16/01:00am 13.6 13.4 13.6 100 0.0 N 7 11 4 6 1015.9 - 0.2
16/12:30am 13.6 12.7 13.6 100 0.0 NNW 11 15 6 8 1016.1 - 0.2
16/12:00am 12.9 12.5 12.9 100 0.0 N 7 11 4 6 1016.0 1016.0 0.2
 
Date/Time
EST
Temp
°C
App
Temp
°C
Dew
Point
Rel
Hum
%
Delta-T
°C
Wind Press
QNH
hPa
Press
MSL
hPa
Rain
since 9 am
mm
Dir
 
Spd
km/h
Gust
km/h
Spd
kts
Gust
kts
15/11:30pm 13.6 12.7 13.6 100 0.0 N 11 15 6 8 1016.1 - 0.2
15/11:00pm 13.7 12.8 13.7 100 0.0 N 11 13 6 7 1016.3 - 0.2
15/10:30pm 14.2 13.8 14.2 100 0.0 N 9 11 5 6 1016.6 - 0.2
15/10:00pm 14.3 13.6 14.3 100 0.0 N 11 13 6 7 1016.7 - 0.2
15/09:30pm 14.4 15.8 14.4 100 0.0 CALM 0 0 0 0 1016.6 - 0.2
15/09:00pm 14.7 16.2 14.7 100 0.0 CALM 0 0 0 0 1016.7 1016.7 0.2
15/08:30pm 15.3 17.0 15.3 100 0.0 CALM 0 0 0 0 1016.8 - 0.2
15/08:00pm 15.2 16.9 15.2 100 0.0 CALM 0 0 0 0 1016.7 - 0.2
15/07:30pm 15.3 17.0 15.1 99 0.1 CALM 0 0 0 0 1016.6 - 0.2
15/07:00pm 16.2 17.4 16.0 99 0.1 ESE 4 6 2 3 1016.3 - 0.2
15/06:30pm 16.7 17.6 16.5 99 0.1 WSW 7 11 4 6 1016.3 - 0.2
15/06:00pm 17.4 18.2 17.2 99 0.1 SSW 9 11 5 6 1015.9 1015.9 0.2
15/05:30pm 18.6 19.1 18.3 98 0.2 S 13 17 7 9 1015.4 - 0.2
15/05:00pm 20.4 20.0 18.9 91 0.9 SSE 19 24 10 13 1015.3 - 0.2
15/04:30pm 20.9 20.6 19.6 92 0.8 SSE 20 30 11 16 1015.3 - 0.2
15/04:00pm 21.9 20.2 19.8 88 1.3 S 28 37 15 20 1015.2 - 0.2
15/03:30pm 21.5 20.0 19.4 88 1.3 SSE 26 37 14 20 1015.2 - 0.2
15/03:00pm 19.9 19.7 19.7 99 0.1 S 20 28 11 15 1015.3 1015.3 0.2
15/02:44pm 20.7 18.7 19.2 91 0.9 S 28 46 15 25 1015.4 - 0.2
15/02:30pm 22.2 22.4 20.5 90 1.1 S 20 26 11 14 1015.3 - 0.2
15/02:00pm 22.5 23.0 21.1 92 0.9 SSW 20 28 11 15 1015.4 - 0.2
15/01:30pm 21.1 21.1 19.7 92 0.9 SSE 19 28 10 15 1015.5 - 0.2
15/01:00pm 21.7 20.9 20.0 90 1.1 S 24 35 13 19 1015.7 - 0.2
15/12:30pm 23.0 22.9 22.3 96 0.5 S 26 32 14 17 1015.7 - 0.2
15/12:00pm 19.8 18.0 19.6 99 0.1 SSE 28 41 15 22 1016.2 1016.2 0.2
15/11:30am 22.2 23.2 21.0 93 0.8 SSW 17 28 9 15 1016.5 - 0.0
15/11:00am 21.3 22.8 20.5 95 0.5 SSW 13 20 7 11 1017.1 - 0.0
15/10:32am 19.4 20.3 19.2 99 0.1 S 13 17 7 9 1017.7 - 0.0
15/10:30am 19.2 19.6 19.0 99 0.1 S 15 20 8 11 1017.7 - 0.0
15/10:00am 18.7 18.1 18.5 99 0.1 SSW 19 26 10 14 1018.0 - 0.0
15/09:30am 18.4 17.1 18.2 99 0.1 SSW 22 28 12 15 1018.0 - 0.0
15/09:00am 18.8 18.6 18.6 99 0.1 SSW 17 24 9 13 1018.0 1018.0 4.4
15/08:30am 18.5 18.6 18.3 99 0.1 SSW 15 20 8 11 1017.9 - 4.4
15/08:12am 18.2 17.8 18.0 99 0.1 SSW 17 20 9 11 1017.8 - 4.4
15/08:00am 18.1 18.4 17.9 99 0.1 S 13 17 7 9 1017.7 - 4.4
15/07:30am 17.6 17.7 17.4 99 0.1 S 13 17 7 9 1017.6 - 4.2

Other Formats:

Comma delimited format used in spreadsheet applications
http://www.bom.gov.au/fwo/IDN60801/IDN60801.94572.axf

JavaScript Object Notation format (JSON) in row-major order
http://www.bom.gov.au/fwo/IDN60801/IDN60801.94572.json